sensor_id;sensor_type;location;lat;lon;timestamp;P1;durP1;ratioP1;P2;durP2;ratioP2
81950;SDS011;71452;52.562;5.642;2024-02-28T00:01:08;21.67;;;7.50;;
81950;SDS011;71452;52.562;5.642;2024-02-28T00:03:38;21.65;;;8.73;;
81950;SDS011;71452;52.562;5.642;2024-02-28T00:06:07;16.63;;;7.28;;
81950;SDS011;71452;52.562;5.642;2024-02-28T00:08:44;17.42;;;6.85;;
81950;SDS011;71452;52.562;5.642;2024-02-28T00:11:16;21.48;;;9.88;;
81950;SDS011;71452;52.562;5.642;2024-02-28T00:13:47;21.95;;;7.70;;
81950;SDS011;71452;52.562;5.642;2024-02-28T00:16:19;17.50;;;7.00;;
81950;SDS011;71452;52.562;5.642;2024-02-28T00:18:48;19.25;;;8.88;;
81950;SDS011;71452;52.562;5.642;2024-02-28T00:21:17;25.70;;;8.18;;
81950;SDS011;71452;52.562;5.642;2024-02-28T00:23:46;17.63;;;7.47;;
81950;SDS011;71452;52.562;5.642;2024-02-28T00:26:19;19.05;;;7.43;;
81950;SDS011;71452;52.562;5.642;2024-02-28T00:28:48;22.33;;;8.60;;
81950;SDS011;71452;52.562;5.642;2024-02-28T00:31:26;18.95;;;8.13;;
81950;SDS011;71452;52.562;5.642;2024-02-28T00:33:55;16.10;;;7.25;;
81950;SDS011;71452;52.562;5.642;2024-02-28T00:36:28;12.70;;;6.55;;
81950;SDS011;71452;52.562;5.642;2024-02-28T00:38:57;23.48;;;6.72;;
81950;SDS011;71452;52.562;5.642;2024-02-28T00:41:36;21.92;;;8.55;;
81950;SDS011;71452;52.562;5.642;2024-02-28T00:44:06;19.70;;;7.47;;
81950;SDS011;71452;52.562;5.642;2024-02-28T00:46:38;16.75;;;7.20;;
81950;SDS011;71452;52.562;5.642;2024-02-28T00:49:08;23.27;;;8.40;;
81950;SDS011;71452;52.562;5.642;2024-02-28T00:54:10;20.75;;;9.18;;
81950;SDS011;71452;52.562;5.642;2024-02-28T00:56:41;28.33;;;8.10;;
81950;SDS011;71452;52.562;5.642;2024-02-28T00:59:10;24.73;;;9.35;;
81950;SDS011;71452;52.562;5.642;2024-02-28T01:01:43;22.73;;;7.93;;
81950;SDS011;71452;52.562;5.642;2024-02-28T01:04:13;22.10;;;8.48;;
81950;SDS011;71452;52.562;5.642;2024-02-28T01:06:42;19.10;;;8.25;;
81950;SDS011;71452;52.562;5.642;2024-02-28T01:09:11;21.48;;;8.05;;
81950;SDS011;71452;52.562;5.642;2024-02-28T01:11:41;21.02;;;8.50;;
81950;SDS011;71452;52.562;5.642;2024-02-28T01:14:12;21.90;;;8.60;;
81950;SDS011;71452;52.562;5.642;2024-02-28T01:16:43;17.50;;;8.10;;
81950;SDS011;71452;52.562;5.642;2024-02-28T01:19:14;23.67;;;9.85;;
81950;SDS011;71452;52.562;5.642;2024-02-28T01:21:44;20.05;;;9.50;;
81950;SDS011;71452;52.562;5.642;2024-02-28T01:24:14;16.75;;;8.77;;
81950;SDS011;71452;52.562;5.642;2024-02-28T01:26:43;21.42;;;8.57;;
81950;SDS011;71452;52.562;5.642;2024-02-28T01:29:19;20.25;;;8.40;;
81950;SDS011;71452;52.562;5.642;2024-02-28T01:31:51;15.93;;;7.95;;
81950;SDS011;71452;52.562;5.642;2024-02-28T01:34:31;21.75;;;10.23;;
81950;SDS011;71452;52.562;5.642;2024-02-28T01:37:00;23.42;;;8.68;;
81950;SDS011;71452;52.562;5.642;2024-02-28T01:42:04;24.60;;;9.25;;
81950;SDS011;71452;52.562;5.642;2024-02-28T01:47:21;24.67;;;9.15;;
81950;SDS011;71452;52.562;5.642;2024-02-28T01:49:51;19.63;;;8.18;;
81950;SDS011;71452;52.562;5.642;2024-02-28T01:52:21;20.17;;;8.32;;
81950;SDS011;71452;52.562;5.642;2024-02-28T01:54:53;20.90;;;8.20;;
81950;SDS011;71452;52.562;5.642;2024-02-28T01:57:22;20.08;;;8.07;;
81950;SDS011;71452;52.562;5.642;2024-02-28T01:59:52;16.08;;;7.45;;
81950;SDS011;71452;52.562;5.642;2024-02-28T02:05:29;21.58;;;8.80;;
81950;SDS011;71452;52.562;5.642;2024-02-28T02:07:58;35.47;;;10.63;;
81950;SDS011;71452;52.562;5.642;2024-02-28T02:10:29;23.08;;;8.90;;
81950;SDS011;71452;52.562;5.642;2024-02-28T02:13:04;22.50;;;9.38;;
81950;SDS011;71452;52.562;5.642;2024-02-28T02:15:34;20.02;;;8.77;;
81950;SDS011;71452;52.562;5.642;2024-02-28T02:21:05;20.80;;;8.73;;
81950;SDS011;71452;52.562;5.642;2024-02-28T02:23:40;18.48;;;9.05;;
81950;SDS011;71452;52.562;5.642;2024-02-28T02:26:09;22.77;;;7.47;;
81950;SDS011;71452;52.562;5.642;2024-02-28T02:31:11;35.75;;;8.18;;
81950;SDS011;71452;52.562;5.642;2024-02-28T02:36:15;21.95;;;8.35;;
81950;SDS011;71452;52.562;5.642;2024-02-28T02:38:48;35.28;;;9.45;;
81950;SDS011;71452;52.562;5.642;2024-02-28T02:41:17;80.97;;;9.95;;
81950;SDS011;71452;52.562;5.642;2024-02-28T02:43:52;32.97;;;9.27;;
81950;SDS011;71452;52.562;5.642;2024-02-28T02:46:21;33.67;;;10.15;;
81950;SDS011;71452;52.562;5.642;2024-02-28T02:48:56;45.10;;;8.95;;
81950;SDS011;71452;52.562;5.642;2024-02-28T02:51:25;43.47;;;9.95;;
81950;SDS011;71452;52.562;5.642;2024-02-28T02:53:57;19.58;;;8.82;;
81950;SDS011;71452;52.562;5.642;2024-02-28T02:56:26;21.38;;;8.48;;
81950;SDS011;71452;52.562;5.642;2024-02-28T02:58:57;20.60;;;7.18;;
81950;SDS011;71452;52.562;5.642;2024-02-28T03:01:26;17.08;;;7.15;;
81950;SDS011;71452;52.562;5.642;2024-02-28T03:03:55;17.00;;;7.97;;
81950;SDS011;71452;52.562;5.642;2024-02-28T03:06:30;20.10;;;8.02;;
81950;SDS011;71452;52.562;5.642;2024-02-28T03:09:01;22.20;;;8.05;;
81950;SDS011;71452;52.562;5.642;2024-02-28T03:11:38;15.02;;;7.20;;
81950;SDS011;71452;52.562;5.642;2024-02-28T03:14:07;17.30;;;6.53;;
81950;SDS011;71452;52.562;5.642;2024-02-28T03:19:10;19.58;;;7.65;;
81950;SDS011;71452;52.562;5.642;2024-02-28T03:21:48;19.70;;;7.38;;
81950;SDS011;71452;52.562;5.642;2024-02-28T03:24:20;17.83;;;9.77;;
81950;SDS011;71452;52.562;5.642;2024-02-28T03:26:58;21.95;;;8.07;;
81950;SDS011;71452;52.562;5.642;2024-02-28T03:29:27;22.15;;;8.02;;
81950;SDS011;71452;52.562;5.642;2024-02-28T03:31:57;15.45;;;6.32;;
81950;SDS011;71452;52.562;5.642;2024-02-28T03:34:27;19.42;;;8.35;;
81950;SDS011;71452;52.562;5.642;2024-02-28T03:36:58;13.73;;;6.28;;
81950;SDS011;71452;52.562;5.642;2024-02-28T03:39:30;15.90;;;6.85;;
81950;SDS011;71452;52.562;5.642;2024-02-28T03:42:01;17.75;;;7.57;;
81950;SDS011;71452;52.562;5.642;2024-02-28T03:44:30;16.90;;;6.43;;
81950;SDS011;71452;52.562;5.642;2024-02-28T03:47:01;17.17;;;6.97;;
81950;SDS011;71452;52.562;5.642;2024-02-28T03:49:30;17.42;;;8.55;;
81950;SDS011;71452;52.562;5.642;2024-02-28T03:51:59;16.83;;;6.93;;
81950;SDS011;71452;52.562;5.642;2024-02-28T03:54:33;15.95;;;6.18;;
81950;SDS011;71452;52.562;5.642;2024-02-28T03:57:02;17.00;;;6.68;;
81950;SDS011;71452;52.562;5.642;2024-02-28T03:59:33;14.10;;;6.82;;
81950;SDS011;71452;52.562;5.642;2024-02-28T04:02:02;17.70;;;6.47;;
81950;SDS011;71452;52.562;5.642;2024-02-28T04:04:33;18.48;;;7.85;;
81950;SDS011;71452;52.562;5.642;2024-02-28T04:07:02;14.55;;;6.70;;
81950;SDS011;71452;52.562;5.642;2024-02-28T04:12:07;12.15;;;5.60;;
81950;SDS011;71452;52.562;5.642;2024-02-28T04:14:37;17.52;;;7.53;;
81950;SDS011;71452;52.562;5.642;2024-02-28T04:17:07;15.35;;;5.78;;
81950;SDS011;71452;52.562;5.642;2024-02-28T04:19:36;15.80;;;6.78;;
81950;SDS011;71452;52.562;5.642;2024-02-28T04:22:05;12.45;;;5.70;;
81950;SDS011;71452;52.562;5.642;2024-02-28T04:27:28;16.75;;;6.85;;
81950;SDS011;71452;52.562;5.642;2024-02-28T04:30:03;14.23;;;6.20;;
81950;SDS011;71452;52.562;5.642;2024-02-28T04:32:33;14.05;;;6.00;;
81950;SDS011;71452;52.562;5.642;2024-02-28T04:35:04;13.88;;;5.72;;
81950;SDS011;71452;52.562;5.642;2024-02-28T04:37:33;14.60;;;6.47;;
81950;SDS011;71452;52.562;5.642;2024-02-28T04:40:03;14.68;;;5.60;;
81950;SDS011;71452;52.562;5.642;2024-02-28T04:42:36;12.00;;;6.25;;
81950;SDS011;71452;52.562;5.642;2024-02-28T04:45:06;20.05;;;7.32;;
81950;SDS011;71452;52.562;5.642;2024-02-28T04:51:00;14.05;;;6.07;;
81950;SDS011;71452;52.562;5.642;2024-02-28T04:53:29;14.57;;;5.78;;
81950;SDS011;71452;52.562;5.642;2024-02-28T04:55:59;12.63;;;6.13;;
81950;SDS011;71452;52.562;5.642;2024-02-28T04:58:32;12.57;;;6.32;;
81950;SDS011;71452;52.562;5.642;2024-02-28T05:01:01;11.88;;;6.72;;
81950;SDS011;71452;52.562;5.642;2024-02-28T05:03:34;14.38;;;6.68;;
81950;SDS011;71452;52.562;5.642;2024-02-28T05:06:03;16.80;;;5.25;;
81950;SDS011;71452;52.562;5.642;2024-02-28T05:08:40;15.60;;;6.30;;
81950;SDS011;71452;52.562;5.642;2024-02-28T05:11:09;11.65;;;5.45;;
81950;SDS011;71452;52.562;5.642;2024-02-28T05:13:43;12.48;;;4.28;;
81950;SDS011;71452;52.562;5.642;2024-02-28T05:16:12;14.38;;;6.30;;
81950;SDS011;71452;52.562;5.642;2024-02-28T05:18:43;12.60;;;6.78;;
81950;SDS011;71452;52.562;5.642;2024-02-28T05:21:13;18.15;;;6.57;;
81950;SDS011;71452;52.562;5.642;2024-02-28T05:23:43;13.10;;;5.28;;
81950;SDS011;71452;52.562;5.642;2024-02-28T05:26:12;16.77;;;6.90;;
81950;SDS011;71452;52.562;5.642;2024-02-28T05:28:45;11.68;;;5.28;;
81950;SDS011;71452;52.562;5.642;2024-02-28T05:31:20;10.82;;;5.30;;
81950;SDS011;71452;52.562;5.642;2024-02-28T05:33:51;12.75;;;5.72;;
81950;SDS011;71452;52.562;5.642;2024-02-28T05:36:22;13.65;;;5.93;;
81950;SDS011;71452;52.562;5.642;2024-02-28T05:38:52;11.23;;;5.38;;
81950;SDS011;71452;52.562;5.642;2024-02-28T05:41:22;10.48;;;5.80;;
81950;SDS011;71452;52.562;5.642;2024-02-28T05:43:54;8.35;;;4.82;;
81950;SDS011;71452;52.562;5.642;2024-02-28T05:46:24;13.73;;;6.25;;
81950;SDS011;71452;52.562;5.642;2024-02-28T05:48:53;12.27;;;5.72;;
81950;SDS011;71452;52.562;5.642;2024-02-28T05:51:22;14.07;;;5.97;;
81950;SDS011;71452;52.562;5.642;2024-02-28T05:53:51;10.95;;;6.10;;
81950;SDS011;71452;52.562;5.642;2024-02-28T05:56:20;10.23;;;5.30;;
81950;SDS011;71452;52.562;5.642;2024-02-28T05:58:49;11.88;;;5.30;;
81950;SDS011;71452;52.562;5.642;2024-02-28T06:01:21;12.25;;;6.10;;
81950;SDS011;71452;52.562;5.642;2024-02-28T06:03:50;10.63;;;5.80;;
81950;SDS011;71452;52.562;5.642;2024-02-28T06:06:20;12.73;;;6.53;;
81950;SDS011;71452;52.562;5.642;2024-02-28T06:08:49;12.73;;;5.65;;
81950;SDS011;71452;52.562;5.642;2024-02-28T06:11:18;13.43;;;6.07;;
81950;SDS011;71452;52.562;5.642;2024-02-28T06:13:49;12.63;;;6.32;;
81950;SDS011;71452;52.562;5.642;2024-02-28T06:16:22;13.35;;;6.03;;
81950;SDS011;71452;52.562;5.642;2024-02-28T06:18:51;13.15;;;6.82;;
81950;SDS011;71452;52.562;5.642;2024-02-28T06:21:21;12.75;;;6.20;;
81950;SDS011;71452;52.562;5.642;2024-02-28T06:23:52;14.63;;;5.30;;
81950;SDS011;71452;52.562;5.642;2024-02-28T06:26:22;13.32;;;5.82;;
81950;SDS011;71452;52.562;5.642;2024-02-28T06:28:54;20.00;;;6.65;;
81950;SDS011;71452;52.562;5.642;2024-02-28T06:31:29;9.68;;;5.88;;
81950;SDS011;71452;52.562;5.642;2024-02-28T06:33:59;16.23;;;5.68;;
81950;SDS011;71452;52.562;5.642;2024-02-28T06:36:29;13.98;;;5.97;;
81950;SDS011;71452;52.562;5.642;2024-02-28T06:39:04;11.20;;;5.85;;
81950;SDS011;71452;52.562;5.642;2024-02-28T06:41:33;14.32;;;5.40;;
81950;SDS011;71452;52.562;5.642;2024-02-28T06:44:02;11.60;;;6.03;;
81950;SDS011;71452;52.562;5.642;2024-02-28T06:46:36;11.65;;;5.13;;
81950;SDS011;71452;52.562;5.642;2024-02-28T06:49:05;10.68;;;5.22;;
81950;SDS011;71452;52.562;5.642;2024-02-28T06:51:34;12.05;;;6.47;;
81950;SDS011;71452;52.562;5.642;2024-02-28T06:54:05;11.93;;;5.28;;
81950;SDS011;71452;52.562;5.642;2024-02-28T06:56:36;10.98;;;5.85;;
81950;SDS011;71452;52.562;5.642;2024-02-28T06:59:05;9.82;;;4.88;;
81950;SDS011;71452;52.562;5.642;2024-02-28T07:01:37;10.32;;;5.68;;
81950;SDS011;71452;52.562;5.642;2024-02-28T07:04:06;10.10;;;4.93;;
81950;SDS011;71452;52.562;5.642;2024-02-28T07:06:41;16.08;;;6.28;;
81950;SDS011;71452;52.562;5.642;2024-02-28T07:09:11;11.40;;;5.65;;
81950;SDS011;71452;52.562;5.642;2024-02-28T07:11:41;12.43;;;6.70;;
81950;SDS011;71452;52.562;5.642;2024-02-28T07:14:11;10.05;;;5.18;;
81950;SDS011;71452;52.562;5.642;2024-02-28T07:16:42;12.38;;;5.32;;
81950;SDS011;71452;52.562;5.642;2024-02-28T07:19:11;8.10;;;4.75;;
81950;SDS011;71452;52.562;5.642;2024-02-28T07:21:41;11.32;;;5.85;;
81950;SDS011;71452;52.562;5.642;2024-02-28T07:24:10;13.45;;;5.65;;
81950;SDS011;71452;52.562;5.642;2024-02-28T07:26:39;10.27;;;4.18;;
81950;SDS011;71452;52.562;5.642;2024-02-28T07:29:08;12.52;;;5.85;;
81950;SDS011;71452;52.562;5.642;2024-02-28T07:31:46;11.68;;;5.68;;
81950;SDS011;71452;52.562;5.642;2024-02-28T07:34:15;8.10;;;5.10;;
81950;SDS011;71452;52.562;5.642;2024-02-28T07:36:44;15.63;;;5.40;;
81950;SDS011;71452;52.562;5.642;2024-02-28T07:39:13;9.68;;;5.05;;
81950;SDS011;71452;52.562;5.642;2024-02-28T07:41:42;10.15;;;5.05;;
81950;SDS011;71452;52.562;5.642;2024-02-28T07:44:12;13.43;;;5.78;;
81950;SDS011;71452;52.562;5.642;2024-02-28T07:46:41;9.27;;;4.63;;
81950;SDS011;71452;52.562;5.642;2024-02-28T07:49:15;14.25;;;5.90;;
81950;SDS011;71452;52.562;5.642;2024-02-28T07:51:44;10.77;;;4.72;;
81950;SDS011;71452;52.562;5.642;2024-02-28T07:54:13;8.35;;;5.13;;
81950;SDS011;71452;52.562;5.642;2024-02-28T07:56:43;9.48;;;4.75;;
81950;SDS011;71452;52.562;5.642;2024-02-28T07:59:12;9.38;;;4.57;;
81950;SDS011;71452;52.562;5.642;2024-02-28T08:01:42;10.63;;;5.20;;
81950;SDS011;71452;52.562;5.642;2024-02-28T08:04:11;8.43;;;5.07;;
81950;SDS011;71452;52.562;5.642;2024-02-28T08:06:43;9.50;;;5.40;;
81950;SDS011;71452;52.562;5.642;2024-02-28T08:09:12;10.13;;;5.10;;
81950;SDS011;71452;52.562;5.642;2024-02-28T08:11:41;13.98;;;5.72;;
81950;SDS011;71452;52.562;5.642;2024-02-28T08:14:10;11.52;;;5.25;;
81950;SDS011;71452;52.562;5.642;2024-02-28T08:16:39;11.68;;;6.80;;
81950;SDS011;71452;52.562;5.642;2024-02-28T08:19:09;9.27;;;5.18;;
81950;SDS011;71452;52.562;5.642;2024-02-28T08:21:38;11.88;;;5.10;;
81950;SDS011;71452;52.562;5.642;2024-02-28T08:24:10;10.20;;;4.97;;
81950;SDS011;71452;52.562;5.642;2024-02-28T08:26:39;13.73;;;5.43;;
81950;SDS011;71452;52.562;5.642;2024-02-28T08:29:08;9.93;;;5.45;;
81950;SDS011;71452;52.562;5.642;2024-02-28T08:31:41;11.05;;;5.30;;
81950;SDS011;71452;52.562;5.642;2024-02-28T08:34:11;9.70;;;5.90;;
81950;SDS011;71452;52.562;5.642;2024-02-28T08:36:40;9.73;;;4.72;;
81950;SDS011;71452;52.562;5.642;2024-02-28T08:39:12;12.00;;;5.30;;
81950;SDS011;71452;52.562;5.642;2024-02-28T08:41:41;9.98;;;5.75;;
81950;SDS011;71452;52.562;5.642;2024-02-28T08:44:10;9.43;;;5.40;;
81950;SDS011;71452;52.562;5.642;2024-02-28T08:46:40;10.90;;;5.80;;
81950;SDS011;71452;52.562;5.642;2024-02-28T08:49:09;13.23;;;6.40;;
81950;SDS011;71452;52.562;5.642;2024-02-28T08:51:38;12.43;;;6.63;;
81950;SDS011;71452;52.562;5.642;2024-02-28T08:54:07;13.55;;;6.55;;
81950;SDS011;71452;52.562;5.642;2024-02-28T08:56:39;13.38;;;5.72;;
81950;SDS011;71452;52.562;5.642;2024-02-28T08:59:08;11.85;;;6.63;;
81950;SDS011;71452;52.562;5.642;2024-02-28T09:01:38;15.23;;;6.95;;
81950;SDS011;71452;52.562;5.642;2024-02-28T09:04:07;9.52;;;5.40;;
81950;SDS011;71452;52.562;5.642;2024-02-28T09:06:36;7.93;;;5.13;;
81950;SDS011;71452;52.562;5.642;2024-02-28T09:09:05;10.82;;;6.63;;
81950;SDS011;71452;52.562;5.642;2024-02-28T09:11:34;12.02;;;6.75;;
81950;SDS011;71452;52.562;5.642;2024-02-28T09:14:06;11.75;;;5.82;;
81950;SDS011;71452;52.562;5.642;2024-02-28T09:16:35;13.20;;;6.93;;
81950;SDS011;71452;52.562;5.642;2024-02-28T09:19:04;11.00;;;6.50;;
81950;SDS011;71452;52.562;5.642;2024-02-28T09:21:34;13.35;;;6.75;;
81950;SDS011;71452;52.562;5.642;2024-02-28T09:24:03;11.68;;;5.88;;
81950;SDS011;71452;52.562;5.642;2024-02-28T09:26:33;12.43;;;6.65;;
81950;SDS011;71452;52.562;5.642;2024-02-28T09:29:02;9.80;;;4.57;;
81950;SDS011;71452;52.562;5.642;2024-02-28T09:31:34;13.13;;;6.25;;
81950;SDS011;71452;52.562;5.642;2024-02-28T09:34:03;13.07;;;6.82;;
81950;SDS011;71452;52.562;5.642;2024-02-28T09:36:40;11.60;;;6.10;;
81950;SDS011;71452;52.562;5.642;2024-02-28T09:39:10;10.07;;;5.93;;
81950;SDS011;71452;52.562;5.642;2024-02-28T09:41:40;16.65;;;6.15;;
81950;SDS011;71452;52.562;5.642;2024-02-28T09:44:10;11.77;;;6.43;;
81950;SDS011;71452;52.562;5.642;2024-02-28T09:46:42;8.93;;;4.97;;
81950;SDS011;71452;52.562;5.642;2024-02-28T09:49:14;9.27;;;5.78;;
81950;SDS011;71452;52.562;5.642;2024-02-28T09:51:44;10.73;;;6.80;;
81950;SDS011;71452;52.562;5.642;2024-02-28T09:54:17;13.75;;;7.18;;
81950;SDS011;71452;52.562;5.642;2024-02-28T09:56:47;9.98;;;5.40;;
81950;SDS011;71452;52.562;5.642;2024-02-28T09:59:17;14.20;;;7.15;;
81950;SDS011;71452;52.562;5.642;2024-02-28T10:01:52;11.70;;;6.70;;
81950;SDS011;71452;52.562;5.642;2024-02-28T10:04:26;12.50;;;7.55;;
81950;SDS011;71452;52.562;5.642;2024-02-28T10:06:56;13.68;;;6.35;;
81950;SDS011;71452;52.562;5.642;2024-02-28T10:09:25;13.40;;;6.20;;
81950;SDS011;71452;52.562;5.642;2024-02-28T10:11:55;13.40;;;6.20;;
81950;SDS011;71452;52.562;5.642;2024-02-28T10:14:24;14.10;;;6.40;;
81950;SDS011;71452;52.562;5.642;2024-02-28T10:16:55;11.32;;;6.25;;
81950;SDS011;71452;52.562;5.642;2024-02-28T10:19:25;23.70;;;7.03;;
81950;SDS011;71452;52.562;5.642;2024-02-28T10:21:54;15.32;;;6.63;;
81950;SDS011;71452;52.562;5.642;2024-02-28T10:24:24;14.50;;;7.63;;
81950;SDS011;71452;52.562;5.642;2024-02-28T10:26:56;12.73;;;6.90;;
81950;SDS011;71452;52.562;5.642;2024-02-28T10:29:29;12.10;;;6.00;;
81950;SDS011;71452;52.562;5.642;2024-02-28T10:32:01;12.18;;;7.00;;
81950;SDS011;71452;52.562;5.642;2024-02-28T10:34:31;10.93;;;5.95;;
81950;SDS011;71452;52.562;5.642;2024-02-28T10:37:03;13.80;;;6.35;;
81950;SDS011;71452;52.562;5.642;2024-02-28T10:39:33;11.82;;;6.63;;
81950;SDS011;71452;52.562;5.642;2024-02-28T10:42:03;11.35;;;6.20;;
81950;SDS011;71452;52.562;5.642;2024-02-28T10:44:34;12.60;;;6.15;;
81950;SDS011;71452;52.562;5.642;2024-02-28T10:47:07;13.57;;;6.57;;
81950;SDS011;71452;52.562;5.642;2024-02-28T10:49:36;12.75;;;6.63;;
81950;SDS011;71452;52.562;5.642;2024-02-28T10:52:06;12.95;;;7.22;;
81950;SDS011;71452;52.562;5.642;2024-02-28T10:54:39;14.02;;;7.13;;
81950;SDS011;71452;52.562;5.642;2024-02-28T10:57:10;15.18;;;6.80;;
81950;SDS011;71452;52.562;5.642;2024-02-28T10:59:41;11.70;;;6.28;;
81950;SDS011;71452;52.562;5.642;2024-02-28T11:02:15;12.38;;;7.00;;
81950;SDS011;71452;52.562;5.642;2024-02-28T11:04:44;9.65;;;6.13;;
81950;SDS011;71452;52.562;5.642;2024-02-28T11:07:19;10.65;;;6.32;;
81950;SDS011;71452;52.562;5.642;2024-02-28T11:09:53;10.77;;;7.13;;
81950;SDS011;71452;52.562;5.642;2024-02-28T11:14:58;10.00;;;6.25;;
81950;SDS011;71452;52.562;5.642;2024-02-28T11:17:30;13.60;;;6.70;;
81950;SDS011;71452;52.562;5.642;2024-02-28T11:19:59;9.57;;;6.05;;
81950;SDS011;71452;52.562;5.642;2024-02-28T11:25:08;9.48;;;6.55;;
81950;SDS011;71452;52.562;5.642;2024-02-28T11:27:45;11.10;;;6.70;;
81950;SDS011;71452;52.562;5.642;2024-02-28T11:30:15;12.02;;;6.45;;
81950;SDS011;71452;52.562;5.642;2024-02-28T11:32:47;12.35;;;6.70;;
81950;SDS011;71452;52.562;5.642;2024-02-28T11:35:16;11.05;;;6.13;;
81950;SDS011;71452;52.562;5.642;2024-02-28T11:37:45;11.40;;;7.05;;
81950;SDS011;71452;52.562;5.642;2024-02-28T11:40:14;14.85;;;7.90;;
81950;SDS011;71452;52.562;5.642;2024-02-28T11:42:44;11.40;;;6.57;;
81950;SDS011;71452;52.562;5.642;2024-02-28T11:45:13;14.65;;;7.57;;
81950;SDS011;71452;52.562;5.642;2024-02-28T11:47:42;9.52;;;5.00;;
81950;SDS011;71452;52.562;5.642;2024-02-28T11:50:15;16.23;;;8.13;;
81950;SDS011;71452;52.562;5.642;2024-02-28T11:52:44;13.25;;;7.70;;
81950;SDS011;71452;52.562;5.642;2024-02-28T11:55:14;15.15;;;6.50;;
81950;SDS011;71452;52.562;5.642;2024-02-28T11:57:44;12.38;;;6.82;;
81950;SDS011;71452;52.562;5.642;2024-02-28T12:00:13;16.90;;;7.68;;
81950;SDS011;71452;52.562;5.642;2024-02-28T12:02:42;10.68;;;7.45;;
81950;SDS011;71452;52.562;5.642;2024-02-28T12:05:11;13.57;;;7.90;;
81950;SDS011;71452;52.562;5.642;2024-02-28T12:07:44;12.02;;;6.93;;
81950;SDS011;71452;52.562;5.642;2024-02-28T12:10:13;14.07;;;7.88;;
81950;SDS011;71452;52.562;5.642;2024-02-28T12:12:43;15.02;;;7.85;;
81950;SDS011;71452;52.562;5.642;2024-02-28T12:15:14;15.25;;;7.10;;
81950;SDS011;71452;52.562;5.642;2024-02-28T12:17:44;12.45;;;7.35;;
81950;SDS011;71452;52.562;5.642;2024-02-28T12:20:16;13.48;;;7.22;;
81950;SDS011;71452;52.562;5.642;2024-02-28T12:22:45;12.43;;;8.13;;
81950;SDS011;71452;52.562;5.642;2024-02-28T12:25:15;15.23;;;8.05;;
81950;SDS011;71452;52.562;5.642;2024-02-28T12:27:44;14.55;;;7.43;;
81950;SDS011;71452;52.562;5.642;2024-02-28T12:30:13;14.85;;;7.88;;
81950;SDS011;71452;52.562;5.642;2024-02-28T12:32:43;13.30;;;7.72;;
81950;SDS011;71452;52.562;5.642;2024-02-28T12:35:12;12.70;;;7.15;;
81950;SDS011;71452;52.562;5.642;2024-02-28T12:37:43;13.43;;;7.97;;
81950;SDS011;71452;52.562;5.642;2024-02-28T12:40:14;12.45;;;6.75;;
81950;SDS011;71452;52.562;5.642;2024-02-28T12:42:45;14.38;;;7.40;;
81950;SDS011;71452;52.562;5.642;2024-02-28T12:45:14;14.90;;;7.43;;
81950;SDS011;71452;52.562;5.642;2024-02-28T12:47:45;15.13;;;6.78;;
81950;SDS011;71452;52.562;5.642;2024-02-28T12:50:14;14.52;;;7.07;;
81950;SDS011;71452;52.562;5.642;2024-02-28T12:52:46;15.30;;;9.05;;
81950;SDS011;71452;52.562;5.642;2024-02-28T12:55:19;15.43;;;7.72;;
81950;SDS011;71452;52.562;5.642;2024-02-28T12:57:48;13.85;;;7.75;;
81950;SDS011;71452;52.562;5.642;2024-02-28T13:00:18;15.00;;;7.50;;
81950;SDS011;71452;52.562;5.642;2024-02-28T13:02:47;12.13;;;7.43;;
81950;SDS011;71452;52.562;5.642;2024-02-28T13:05:16;16.80;;;8.52;;
81950;SDS011;71452;52.562;5.642;2024-02-28T13:07:48;12.27;;;7.22;;
81950;SDS011;71452;52.562;5.642;2024-02-28T13:10:18;11.38;;;6.25;;
81950;SDS011;71452;52.562;5.642;2024-02-28T13:12:47;14.07;;;7.32;;
81950;SDS011;71452;52.562;5.642;2024-02-28T13:15:17;15.52;;;6.93;;
81950;SDS011;71452;52.562;5.642;2024-02-28T13:17:46;13.68;;;6.03;;
81950;SDS011;71452;52.562;5.642;2024-02-28T13:20:16;12.27;;;6.75;;
81950;SDS011;71452;52.562;5.642;2024-02-28T13:22:45;11.65;;;6.82;;
81950;SDS011;71452;52.562;5.642;2024-02-28T13:25:18;11.07;;;6.00;;
81950;SDS011;71452;52.562;5.642;2024-02-28T13:27:47;15.95;;;6.60;;
81950;SDS011;71452;52.562;5.642;2024-02-28T13:30:16;10.25;;;6.15;;
81950;SDS011;71452;52.562;5.642;2024-02-28T13:32:46;15.45;;;7.57;;
81950;SDS011;71452;52.562;5.642;2024-02-28T13:35:15;16.52;;;8.52;;
81950;SDS011;71452;52.562;5.642;2024-02-28T13:37:44;16.45;;;8.30;;
81950;SDS011;71452;52.562;5.642;2024-02-28T13:40:13;13.05;;;7.05;;
81950;SDS011;71452;52.562;5.642;2024-02-28T13:42:45;13.85;;;8.50;;
81950;SDS011;71452;52.562;5.642;2024-02-28T13:45:14;19.15;;;9.23;;
81950;SDS011;71452;52.562;5.642;2024-02-28T13:47:44;16.65;;;8.95;;
81950;SDS011;71452;52.562;5.642;2024-02-28T13:50:13;18.33;;;8.75;;
81950;SDS011;71452;52.562;5.642;2024-02-28T13:52:42;15.05;;;7.80;;
81950;SDS011;71452;52.562;5.642;2024-02-28T13:55:11;19.23;;;9.75;;
81950;SDS011;71452;52.562;5.642;2024-02-28T13:57:40;15.90;;;8.88;;
81950;SDS011;71452;52.562;5.642;2024-02-28T14:00:13;15.05;;;8.32;;
81950;SDS011;71452;52.562;5.642;2024-02-28T14:02:43;13.95;;;7.50;;
81950;SDS011;71452;52.562;5.642;2024-02-28T14:05:12;18.92;;;8.55;;
81950;SDS011;71452;52.562;5.642;2024-02-28T14:07:41;18.70;;;9.43;;
81950;SDS011;71452;52.562;5.642;2024-02-28T14:10:11;18.30;;;8.73;;
81950;SDS011;71452;52.562;5.642;2024-02-28T14:12:41;16.20;;;7.65;;
81950;SDS011;71452;52.562;5.642;2024-02-28T14:15:13;14.20;;;7.20;;
81950;SDS011;71452;52.562;5.642;2024-02-28T14:17:42;21.35;;;8.07;;
81950;SDS011;71452;52.562;5.642;2024-02-28T14:20:12;13.90;;;7.50;;
81950;SDS011;71452;52.562;5.642;2024-02-28T14:22:41;16.25;;;7.55;;
81950;SDS011;71452;52.562;5.642;2024-02-28T14:25:11;14.25;;;7.82;;
81950;SDS011;71452;52.562;5.642;2024-02-28T14:27:41;13.00;;;7.18;;
81950;SDS011;71452;52.562;5.642;2024-02-28T14:30:15;15.65;;;7.82;;
81950;SDS011;71452;52.562;5.642;2024-02-28T14:32:44;11.38;;;6.70;;
81950;SDS011;71452;52.562;5.642;2024-02-28T14:35:14;15.75;;;6.95;;
81950;SDS011;71452;52.562;5.642;2024-02-28T14:37:44;14.57;;;7.00;;
81950;SDS011;71452;52.562;5.642;2024-02-28T14:40:13;12.18;;;6.65;;
81950;SDS011;71452;52.562;5.642;2024-02-28T14:42:43;16.65;;;6.50;;
81950;SDS011;71452;52.562;5.642;2024-02-28T14:45:16;14.20;;;6.20;;
81950;SDS011;71452;52.562;5.642;2024-02-28T14:47:45;14.63;;;7.05;;
81950;SDS011;71452;52.562;5.642;2024-02-28T14:50:14;12.35;;;6.10;;
81950;SDS011;71452;52.562;5.642;2024-02-28T14:52:43;12.38;;;6.97;;
81950;SDS011;71452;52.562;5.642;2024-02-28T14:55:13;19.05;;;8.15;;
81950;SDS011;71452;52.562;5.642;2024-02-28T14:57:42;23.00;;;8.07;;
81950;SDS011;71452;52.562;5.642;2024-02-28T15:00:11;11.25;;;5.60;;
81950;SDS011;71452;52.562;5.642;2024-02-28T15:02:44;12.10;;;5.50;;
81950;SDS011;71452;52.562;5.642;2024-02-28T15:05:13;15.18;;;6.93;;
81950;SDS011;71452;52.562;5.642;2024-02-28T15:07:43;10.85;;;6.63;;
81950;SDS011;71452;52.562;5.642;2024-02-28T15:10:12;13.75;;;7.18;;
81950;SDS011;71452;52.562;5.642;2024-02-28T15:12:41;13.93;;;7.07;;
81950;SDS011;71452;52.562;5.642;2024-02-28T15:15:11;13.32;;;6.70;;
81950;SDS011;71452;52.562;5.642;2024-02-28T15:17:41;14.65;;;6.53;;
81950;SDS011;71452;52.562;5.642;2024-02-28T15:20:12;15.80;;;6.90;;
81950;SDS011;71452;52.562;5.642;2024-02-28T15:22:42;15.27;;;6.60;;
81950;SDS011;71452;52.562;5.642;2024-02-28T15:25:11;18.23;;;7.10;;
81950;SDS011;71452;52.562;5.642;2024-02-28T15:27:40;14.23;;;7.40;;
81950;SDS011;71452;52.562;5.642;2024-02-28T15:30:10;14.15;;;7.57;;